Lacey Spring, Virginia
Current Conditions -  °F | °C
As of 9:15 AM on Saturday 25 Oct 2014 (Local Time) from K8W2 Reporting Station
Clear Clear  
Wind Chill: 42°   Ceiling: Unl
Heat Index: 44°   Visibility: 10mi
Dew Point: 36°   Wind: 5mph
Humidity: 73%   Direction: 230°SW
Pressure: 30.01"   Gusts: NA
Location:  38.54°N, 78.77°W
Report Text: K8W2 251315Z AUTO 23004KT 10SM CLR 07/02 A3001 RMK AO1 T00670022
Loading
Personal Weather Stations






























Interactive Weather Map
Tropical Storm Tracking
New forecast layout! Learn more

10-Day Weather Forecast

Advertisements
Track Severe Weather on mobile